createdAt,value
2019-04-11T00:00:45.853Z,101493.17
2019-04-11T00:03:15.916Z,101495.45
2019-04-11T00:05:45.912Z,101495.88
2019-04-11T00:08:15.876Z,101497.34
2019-04-11T00:10:46.841Z,101496.93
2019-04-11T00:13:23.392Z,101499.11
2019-04-11T00:15:48.869Z,101499.05
2019-04-11T00:18:18.867Z,101498.95
2019-04-11T00:20:48.874Z,101502.07
2019-04-11T00:23:18.842Z,101507.29
2019-04-11T00:25:49.598Z,101508.58
2019-04-11T00:28:19.689Z,101509.33
2019-04-11T00:30:50.463Z,101513.10
2019-04-11T00:33:20.523Z,101511.78
2019-04-11T00:35:50.526Z,101512.03
2019-04-11T00:38:21.445Z,101506.83
2019-04-11T00:40:51.463Z,101505.01
2019-04-11T00:43:30.440Z,101506.17
2019-04-11T00:45:54.056Z,101507.47
2019-04-11T00:48:24.176Z,101506.92
2019-04-11T00:50:54.176Z,101515.59
2019-04-11T00:53:24.350Z,101512.70
2019-04-11T00:55:54.345Z,101509.03
2019-04-11T00:58:24.319Z,101516.85
2019-04-11T01:00:55.540Z,101525.45
2019-04-11T01:03:26.419Z,101516.25
2019-04-11T01:05:56.740Z,101517.83
2019-04-11T01:08:27.356Z,101518.18
2019-04-11T01:10:57.557Z,101521.05
2019-04-11T01:13:39.125Z,101524.98
2019-04-11T01:16:00.797Z,101520.16
2019-04-11T01:18:30.946Z,101523.99
2019-04-11T01:21:02.016Z,101522.09
2019-04-11T01:23:33.199Z,101529.77
2019-04-11T01:26:03.377Z,101525.67
2019-04-11T01:28:34.393Z,101524.94
2019-04-11T01:31:06.186Z,101523.99
2019-04-11T01:33:36.138Z,101524.46
2019-04-11T01:36:07.018Z,101530.64
2019-04-11T01:38:38.741Z,101524.63
2019-04-11T01:41:09.967Z,101524.05
2019-04-11T01:43:52.146Z,101519.42
2019-04-11T01:46:11.889Z,101519.63
2019-04-11T01:48:43.855Z,101525.01
2019-04-11T01:51:13.869Z,101524.44
2019-04-11T01:53:43.839Z,101531.52
2019-04-11T01:56:14.851Z,101533.22
2019-04-11T01:58:44.856Z,101534.66
2019-04-11T02:01:16.806Z,101531.95
2019-04-11T02:03:55.279Z,101538.81
2019-04-11T02:06:25.782Z,101544.90
2019-04-11T02:08:55.788Z,101546.86
2019-04-11T02:11:25.791Z,101554.04
2019-04-11T02:14:05.144Z,101545.25
2019-04-11T02:16:27.550Z,101552.39
2019-04-11T02:18:57.519Z,101547.02
2019-04-11T02:21:27.916Z,101547.28
2019-04-11T02:24:11.919Z,101548.23
2019-04-11T02:26:46.537Z,101547.97
2019-04-11T02:29:15.387Z,101547.50
2019-04-11T02:31:46.716Z,101555.94
2019-04-11T02:34:17.244Z,101549.35
2019-04-11T02:36:48.925Z,101551.03
2019-04-11T02:39:20.267Z,101560.44
2019-04-11T02:41:52.705Z,101547.00
2019-04-11T02:44:46.070Z,101550.62
2019-04-11T02:47:01.830Z,101551.17
2019-04-11T02:49:27.782Z,101551.44
2019-04-11T02:51:58.622Z,101556.34
2019-04-11T02:54:30.537Z,101551.66
2019-04-11T02:57:02.575Z,101549.81
2019-04-11T02:59:34.374Z,101548.23
2019-04-11T03:02:06.828Z,101551.72
2019-04-11T03:04:37.105Z,101557.37
2019-04-11T03:07:08.042Z,101552.11
2019-04-11T03:09:39.321Z,101553.02
2019-04-11T03:12:11.494Z,101548.31
2019-04-11T03:15:01.058Z,101553.84
2019-04-11T03:17:20.676Z,101547.70
2019-04-11T03:19:59.464Z,101551.66
2019-04-11T03:22:18.198Z,101555.52
2019-04-11T03:24:49.201Z,101553.02
2019-04-11T03:27:20.168Z,101557.84
2019-04-11T03:29:52.133Z,101551.17
2019-04-11T03:33:25.465Z,101554.44
2019-04-11T03:37:59.647Z,101561.37
2019-04-11T03:40:27.097Z,101558.28
2019-04-11T03:42:52.381Z,101564.09
2019-04-11T03:45:33.258Z,101564.09
2019-04-11T03:47:57.670Z,101567.19
2019-04-11T03:50:16.530Z,101559.44
2019-04-11T03:52:45.039Z,101560.31
2019-04-11T03:55:15.726Z,101572.36
2019-04-11T03:57:47.026Z,101573.25
2019-04-11T04:00:19.200Z,101575.83
2019-04-11T04:02:49.623Z,101570.19
2019-04-11T04:05:21.664Z,101573.25
2019-04-11T04:07:52.943Z,101574.95
2019-04-11T04:10:25.741Z,101578.13
2019-04-11T04:12:58.049Z,101573.05
2019-04-11T04:15:52.005Z,101572.23
2019-04-11T04:18:21.343Z,101583.47
2019-04-11T04:20:53.364Z,101590.08
2019-04-11T04:23:25.051Z,101593.70
2019-04-11T04:25:55.400Z,101597.67
2019-04-11T04:28:27.097Z,101596.94
2019-04-11T04:30:57.983Z,101596.73
2019-04-11T04:33:29.332Z,101598.33
2019-04-11T04:36:02.133Z,101597.35
2019-04-11T04:38:33.834Z,101604.59
2019-04-11T04:41:16.917Z,101606.77
2019-04-11T04:43:36.695Z,101607.23
2019-04-11T04:46:25.055Z,101611.33
2019-04-11T04:48:40.380Z,101608.20
2019-04-11T04:51:12.143Z,101616.20
2019-04-11T04:53:43.042Z,101614.71
2019-04-11T04:56:13.860Z,101615.30
2019-04-11T04:58:46.632Z,101619.97
2019-04-11T05:01:17.160Z,101620.11
2019-04-11T05:03:48.826Z,101618.33
2019-04-11T05:06:20.700Z,101620.26
2019-04-11T05:08:51.407Z,101624.55
2019-04-11T05:11:23.129Z,101619.72
2019-04-11T05:13:54.518Z,101623.39
2019-04-11T05:16:24.685Z,101623.36
2019-04-11T05:18:54.831Z,101624.27
2019-04-11T05:21:25.445Z,101624.86
2019-04-11T05:23:56.651Z,101625.48
2019-04-11T05:26:27.863Z,101620.14
2019-04-11T05:28:57.915Z,101622.97
2019-04-11T05:31:27.877Z,101618.75
2019-04-11T05:33:57.900Z,101620.56
2019-04-11T05:36:30.427Z,101626.22
2019-04-11T05:39:00.580Z,101629.87
2019-04-11T05:41:31.451Z,101630.26
2019-04-11T05:44:03.137Z,101630.42
2019-04-11T05:46:45.437Z,101631.78
2019-04-11T05:49:21.174Z,101637.33
2019-04-11T05:52:04.206Z,101639.86
2019-04-11T05:54:47.972Z,101640.03
2019-04-11T05:57:21.288Z,101635.09
2019-04-11T05:59:50.931Z,101638.26
2019-04-11T06:02:27.509Z,101638.98
2019-04-11T06:05:00.416Z,101644.50
2019-04-11T06:07:32.762Z,101650.63
2019-04-11T06:10:13.269Z,101647.25
2019-04-11T06:12:52.633Z,101643.45
2019-04-11T06:15:25.022Z,101641.23
2019-04-11T06:17:55.138Z,101647.81
2019-04-11T06:20:43.223Z,101643.63
2019-04-11T06:23:21.401Z,101651.83
2019-04-11T06:25:55.752Z,101664.52
2019-04-11T06:28:28.519Z,101661.09
2019-04-11T06:31:18.115Z,101662.33
2019-04-11T06:33:56.624Z,101660.91
2019-04-11T06:36:45.269Z,101657.33
2019-04-11T06:39:35.589Z,101650.98
2019-04-11T06:42:07.631Z,101658.29
2019-04-11T06:44:39.749Z,101656.48
2019-04-11T06:47:27.376Z,101660.97
2019-04-11T06:50:15.571Z,101658.03
2019-04-11T06:52:46.480Z,101653.89
2019-04-11T06:55:21.143Z,101656.48
2019-04-11T06:58:02.760Z,101653.23
2019-04-11T07:00:33.574Z,101659.75
2019-04-11T07:03:09.283Z,101655.42
2019-04-11T07:05:38.745Z,101655.09
2019-04-11T07:08:09.607Z,101661.70
2019-04-11T07:10:44.719Z,101661.33
2019-04-11T07:13:25.339Z,101657.25
2019-04-11T07:15:55.336Z,101662.48
2019-04-11T07:18:46.395Z,101665.34
2019-04-11T07:21:17.079Z,101664.64
2019-04-11T07:24:05.354Z,101665.86
2019-04-11T07:26:37.363Z,101667.84
2019-04-11T07:29:25.806Z,101671.98
2019-04-11T07:32:07.096Z,101675.42
2019-04-11T07:34:52.403Z,101685.77
2019-04-11T07:37:33.641Z,101686.17
2019-04-11T07:40:15.547Z,101684.22
2019-04-11T07:42:52.095Z,101688.73
2019-04-11T07:45:40.225Z,101686.83
2019-04-11T07:48:12.855Z,101686.86
2019-04-11T07:50:44.310Z,101686.92
2019-04-11T07:53:15.988Z,101690.38
2019-04-11T07:55:46.682Z,101698.09
2019-04-11T07:58:19.346Z,101694.52
2019-04-11T08:01:08.270Z,101695.09
2019-04-11T08:03:49.260Z,101694.63
2019-04-11T08:06:30.984Z,101691.48
2019-04-11T08:09:17.719Z,101688.16
2019-04-11T08:11:49.833Z,101693.98
2019-04-11T08:14:40.349Z,101683.70
2019-04-11T08:17:11.975Z,101705.84
2019-04-11T08:19:59.677Z,101701.09
2019-04-11T08:22:37.374Z,101699.75
2019-04-11T08:25:25.135Z,101695.80
2019-04-11T08:28:04.901Z,101701.05
2019-04-11T08:30:36.862Z,101704.39
2019-04-11T08:33:09.102Z,101708.06
2019-04-11T08:35:51.410Z,101704.30
2019-04-11T08:38:24.699Z,101708.79
2019-04-11T08:41:03.096Z,101701.80
2019-04-11T08:43:35.280Z,101693.64
2019-04-11T08:46:12.925Z,101690.48
2019-04-11T08:48:45.635Z,101691.44
2019-04-11T08:51:19.049Z,101691.88
2019-04-11T08:54:07.277Z,101689.59
2019-04-11T08:56:39.122Z,101692.22
2019-04-11T08:59:38.343Z,101693.14
2019-04-11T09:02:08.898Z,101694.07
2019-04-11T09:05:04.469Z,101697.81
2019-04-11T09:07:29.834Z,101686.57
2019-04-11T09:10:17.937Z,101688.05
2019-04-11T09:12:50.880Z,101682.73
2019-04-11T09:15:22.596Z,101683.09
2019-04-11T09:18:02.053Z,101685.80
2019-04-11T09:20:40.143Z,101684.95
2019-04-11T09:23:11.354Z,101682.92
2019-04-11T09:26:01.706Z,101682.02
2019-04-11T09:28:36.053Z,101684.61
2019-04-11T09:31:10.553Z,101679.99
2019-04-11T09:33:57.717Z,101689.06
2019-04-11T09:36:38.802Z,101681.22
2019-04-11T09:39:19.152Z,101690.20
2019-04-11T09:42:03.107Z,101689.30
2019-04-11T09:44:49.841Z,101693.91
2019-04-11T09:47:22.142Z,101682.30
2019-04-11T09:50:00.073Z,101681.88
2019-04-11T09:52:43.681Z,101680.10
2019-04-11T09:55:31.460Z,101689.41
2019-04-11T09:58:02.936Z,101684.27
2019-04-11T10:00:34.824Z,101689.92
2019-04-11T10:03:06.725Z,101689.83
2019-04-11T10:05:44.819Z,101694.02
2019-04-11T10:08:22.553Z,101692.08
2019-04-11T10:11:10.104Z,101690.27
2019-04-11T10:13:44.939Z,101699.58
2019-04-11T10:16:17.887Z,101702.33
2019-04-11T10:19:05.853Z,101708.00
2019-04-11T10:21:37.560Z,101701.16
2019-04-11T10:24:18.925Z,101697.16
2019-04-11T10:26:52.027Z,101693.17
2019-04-11T10:29:40.024Z,101703.71
2019-04-11T10:32:11.793Z,101705.00
2019-04-11T10:34:46.577Z,101702.98
2019-04-11T10:37:18.129Z,101697.97
2019-04-11T10:39:53.560Z,101693.56
2019-04-11T10:42:24.927Z,101698.45
2019-04-11T10:45:12.651Z,101697.15
2019-04-11T10:47:42.595Z,101698.40
2019-04-11T10:50:23.703Z,101707.71
2019-04-11T10:52:55.520Z,101704.30
2019-04-11T10:55:29.816Z,101702.68
2019-04-11T10:58:10.912Z,101701.43
2019-04-11T11:00:57.761Z,101710.11
2019-04-11T11:03:30.596Z,101702.11
2019-04-11T11:06:08.390Z,101705.25
2019-04-11T11:08:43.768Z,101704.05
2019-04-11T11:11:16.428Z,101703.02
2019-04-11T11:14:06.683Z,101698.28
2019-04-11T11:16:41.934Z,101700.52
2019-04-11T11:19:37.210Z,101704.83
2019-04-11T11:21:47.656Z,101701.89
2019-04-11T11:24:39.109Z,101706.21
2019-04-11T11:27:07.429Z,101702.58
2019-04-11T11:29:58.144Z,101703.94
2019-04-11T11:32:29.373Z,101705.36
2019-04-11T11:35:01.209Z,101705.66
2019-04-11T11:37:35.713Z,101711.27
2019-04-11T11:40:13.795Z,101708.95
2019-04-11T11:42:52.608Z,101714.95
2019-04-11T11:45:29.979Z,101717.28
2019-04-11T11:48:19.195Z,101712.87
2019-04-11T11:50:51.400Z,101722.65
2019-04-11T11:53:28.331Z,101724.39
2019-04-11T11:56:00.123Z,101715.75
2019-04-11T11:58:31.665Z,101725.02
2019-04-11T12:01:05.841Z,101721.44
2019-04-11T12:03:40.754Z,101716.62
2019-04-11T12:06:10.909Z,101722.70
2019-04-11T12:09:00.235Z,101719.70
2019-04-11T12:11:30.380Z,101720.84
2019-04-11T12:14:18.355Z,101726.09
2019-04-11T12:16:59.523Z,101726.41
2019-04-11T12:19:26.881Z,101722.14
2019-04-11T12:21:58.440Z,101725.91
2019-04-11T12:24:42.947Z,101724.56
2019-04-11T12:27:18.450Z,101728.64
2019-04-11T12:29:51.906Z,101720.46
2019-04-11T12:32:30.552Z,101722.44
2019-04-11T12:35:08.267Z,101720.61
2019-04-11T12:37:43.357Z,101718.96
2019-04-11T12:40:31.645Z,101719.84
2019-04-11T12:43:03.183Z,101718.48
2019-04-11T12:45:34.737Z,101714.41
2019-04-11T12:48:04.699Z,101720.11
2019-04-11T12:50:42.129Z,101718.34
2019-04-11T12:53:12.108Z,101717.36
2019-04-11T12:55:52.469Z,101707.41
2019-04-11T12:58:27.184Z,101710.89
2019-04-11T13:00:58.743Z,101710.80
2019-04-11T13:03:46.798Z,101717.56
2019-04-11T13:06:18.480Z,101721.89
2019-04-11T13:08:52.734Z,101709.20
2019-04-11T13:11:24.717Z,101711.42
2019-04-11T13:13:58.983Z,101710.11
2019-04-11T13:16:28.935Z,101713.64
2019-04-11T13:19:03.484Z,101712.12
2019-04-11T13:21:35.076Z,101712.92
2019-04-11T13:24:09.257Z,101711.59
2019-04-11T13:26:57.168Z,101712.84
2019-04-11T13:29:31.924Z,101708.57
2019-04-11T13:32:20.063Z,101713.86
2019-04-11T13:35:08.077Z,101719.33
2019-04-11T13:37:56.048Z,101717.95
2019-04-11T13:40:30.672Z,101713.94
2019-04-11T13:43:02.245Z,101716.76
2019-04-11T13:45:33.787Z,101714.19
2019-04-11T13:48:21.738Z,101715.52
2019-04-11T13:50:53.291Z,101720.68
2019-04-11T13:53:43.421Z,101714.52
2019-04-11T13:56:13.873Z,101709.23
2019-04-11T13:59:01.553Z,101710.50
2019-04-11T14:01:32.026Z,101715.72
2019-04-11T14:04:07.903Z,101715.28
2019-04-11T14:06:35.356Z,101709.70
2019-04-11T14:09:15.036Z,101708.12
2019-04-11T14:11:46.697Z,101705.93
2019-04-11T14:14:21.202Z,101713.00
2019-04-11T14:16:52.741Z,101708.98
2019-04-11T14:19:27.035Z,101715.90
2019-04-11T14:21:56.992Z,101712.84
2019-04-11T14:24:31.454Z,101708.05
2019-04-11T14:27:02.980Z,101709.83
2019-04-11T14:29:40.942Z,101711.47
2019-04-11T14:32:24.668Z,101708.05
2019-04-11T14:34:59.081Z,101705.02
2019-04-11T14:37:38.249Z,101706.62
2019-04-11T14:40:12.810Z,101718.80
2019-04-11T14:42:53.145Z,101702.62
2019-04-11T14:45:27.420Z,101702.50
2019-04-11T14:48:14.042Z,101706.52
2019-04-11T14:50:49.013Z,101704.87
2019-04-11T14:53:26.382Z,101700.89
2019-04-11T14:55:57.944Z,101703.05
2019-04-11T14:58:30.527Z,101700.05
2019-04-11T15:01:00.983Z,101700.89
2019-04-11T15:03:32.517Z,101701.25
2019-04-11T15:06:09.979Z,101698.11
2019-04-11T15:08:41.511Z,101703.81
2019-04-11T15:11:31.454Z,101695.81
2019-04-11T15:14:05.767Z,101698.04
2019-04-11T15:16:37.343Z,101699.86
2019-04-11T15:19:07.311Z,101702.72
2019-04-11T15:21:54.967Z,101700.56
2019-04-11T15:24:24.934Z,101709.69
2019-04-11T15:26:56.472Z,101704.09
2019-04-11T15:29:28.004Z,101711.84
2019-04-11T15:32:01.960Z,101709.09
2019-04-11T15:34:38.366Z,101706.98
2019-04-11T15:37:18.539Z,101707.30
2019-04-11T15:39:50.072Z,101701.69
2019-04-11T15:42:24.480Z,101710.48
2019-04-11T15:44:56.012Z,101707.55
2019-04-11T15:47:27.013Z,101713.30
2019-04-11T15:50:07.723Z,101717.51
2019-04-11T15:52:39.261Z,101721.33
2019-04-11T15:55:19.722Z,101716.00
2019-04-11T15:57:49.716Z,101719.82
2019-04-11T16:00:27.232Z,101717.63
2019-04-11T16:03:01.870Z,101719.77
2019-04-11T16:05:49.864Z,101713.79
2019-04-11T16:08:27.626Z,101719.39
2019-04-11T16:11:15.447Z,101719.47
2019-04-11T16:14:06.040Z,101712.81
2019-04-11T16:16:43.814Z,101715.66
2019-04-11T16:19:21.623Z,101716.91
2019-04-11T16:22:09.458Z,101714.73
2019-04-11T16:24:41.128Z,101722.00
2019-04-11T16:27:25.099Z,101718.03
2019-04-11T16:30:11.873Z,101720.49
2019-04-11T16:32:43.415Z,101718.39
2019-04-11T16:35:20.734Z,101717.09
2019-04-11T16:38:00.581Z,101726.73
2019-04-11T16:40:44.753Z,101728.50
2019-04-11T16:43:14.721Z,101735.42
2019-04-11T16:45:54.594Z,101735.70
2019-04-11T16:48:25.691Z,101736.95
2019-04-11T16:50:55.837Z,101735.61
2019-04-11T16:53:25.848Z,101737.28
2019-04-11T16:55:55.823Z,101733.03
2019-04-11T16:58:25.797Z,101731.75
2019-04-11T17:00:55.800Z,101741.55
2019-04-11T17:03:25.815Z,101734.16
2019-04-11T17:06:09.346Z,101736.34
2019-04-11T17:08:40.875Z,101737.64
2019-04-11T17:11:12.441Z,101741.50
2019-04-11T17:13:42.403Z,101745.89
2019-04-11T17:16:13.400Z,101744.13
2019-04-11T17:18:43.366Z,101745.02
2019-04-11T17:21:13.342Z,101748.05
2019-04-11T17:23:46.780Z,101754.84
2019-04-11T17:26:14.972Z,101747.01
2019-04-11T17:28:45.035Z,101754.67
2019-04-11T17:31:14.980Z,101761.27
2019-04-11T17:33:44.945Z,101762.53
2019-04-11T17:36:14.979Z,101763.66
2019-04-11T17:38:44.946Z,101764.97
2019-04-11T17:41:14.877Z,101766.27
2019-04-11T17:43:47.024Z,101765.50
2019-04-11T17:46:16.507Z,101773.85
2019-04-11T17:48:46.492Z,101780.27
2019-04-11T17:51:16.462Z,101777.66
2019-04-11T17:53:46.434Z,101782.92
2019-04-11T17:56:16.409Z,101788.98
2019-04-11T17:58:46.387Z,101795.86
2019-04-11T18:01:16.363Z,101792.40
2019-04-11T18:03:46.435Z,101795.25
2019-04-11T18:06:17.202Z,101800.89
2019-04-11T18:08:51.316Z,101803.05
2019-04-11T18:11:20.408Z,101808.41
2019-04-11T18:13:50.370Z,101810.09
2019-04-11T18:16:20.440Z,101818.69
2019-04-11T18:18:50.414Z,101815.77
2019-04-11T18:21:20.380Z,101817.11
2019-04-11T18:23:50.691Z,101823.59
2019-04-11T18:26:21.502Z,101820.84
2019-04-11T18:28:52.646Z,101826.94
2019-04-11T18:31:24.755Z,101828.05
2019-04-11T18:33:54.338Z,101824.95
2019-04-11T18:36:24.309Z,101821.57
2019-04-11T18:38:54.269Z,101832.46
2019-04-11T18:41:24.235Z,101830.23
2019-04-11T18:43:54.210Z,101831.50
2019-04-11T18:46:24.278Z,101832.80
2019-04-11T18:48:54.549Z,101841.20
2019-04-11T18:51:24.730Z,101833.03
2019-04-11T18:53:54.716Z,101836.14
2019-04-11T18:56:53.511Z,101841.48
2019-04-11T18:59:22.278Z,101839.56
2019-04-11T19:03:10.321Z,101841.21
2019-04-11T19:09:32.581Z,101840.25
2019-04-11T19:14:43.784Z,101833.69
2019-04-11T19:17:25.824Z,101840.17
2019-04-11T19:20:27.107Z,101844.92
2019-04-11T19:24:41.910Z,101846.69
2019-04-11T19:32:18.305Z,101847.91
2019-04-11T19:38:38.131Z,101849.98
2019-04-11T19:40:44.122Z,101843.08
2019-04-11T19:43:13.280Z,101854.19
2019-04-11T19:49:07.162Z,101855.11
2019-04-11T19:55:17.584Z,101855.19
2019-04-11T19:57:46.799Z,101849.48
2019-04-11T20:09:41.998Z,101857.26
2019-04-11T20:12:08.434Z,101853.73
2019-04-11T20:14:56.290Z,101852.38
2019-04-11T20:17:52.909Z,101853.14
2019-04-11T20:20:20.919Z,101857.05
2019-04-11T20:22:59.362Z,101852.67
2019-04-11T20:25:22.645Z,101855.79
2019-04-11T20:27:53.746Z,101854.91
2019-04-11T20:30:25.420Z,101860.24
2019-04-11T20:32:55.382Z,101858.65
2019-04-11T20:35:29.001Z,101854.73
2019-04-11T20:37:57.970Z,101854.82
2019-04-11T20:40:28.037Z,101855.36
2019-04-11T20:42:58.126Z,101860.84
2019-04-11T20:48:48.272Z,101854.27
2019-04-11T20:51:21.127Z,101862.05
2019-04-11T20:54:23.524Z,101858.52
2019-04-11T20:57:00.220Z,101860.23
2019-04-11T20:59:34.871Z,101863.73
2019-04-11T21:02:14.357Z,101858.85
2019-04-11T21:11:09.108Z,101857.64
2019-04-11T21:32:32.688Z,101866.06
2019-04-11T21:35:31.026Z,101866.36
2019-04-11T21:38:02.264Z,101866.81
2019-04-11T21:40:35.602Z,101862.03
2019-04-11T21:43:06.195Z,101867.33
2019-04-11T21:45:36.461Z,101864.21
2019-04-11T21:48:07.020Z,101864.13
2019-04-11T21:50:40.409Z,101862.23
2019-04-11T21:53:08.647Z,101860.13
2019-04-11T21:55:38.613Z,101865.38
2019-04-11T21:58:08.582Z,101864.50
2019-04-11T22:00:42.063Z,101863.61
2019-04-11T22:03:12.434Z,101866.69
2019-04-11T22:05:42.504Z,101870.59
2019-04-11T22:08:12.468Z,101868.73
2019-04-11T22:10:42.443Z,101868.36
2019-04-11T22:13:12.413Z,101870.59
2019-04-11T22:15:43.164Z,101871.02
2019-04-11T22:18:16.828Z,101867.44
2019-04-11T22:20:45.791Z,101868.41
2019-04-11T22:23:15.917Z,101872.92
2019-04-11T22:25:45.879Z,101867.77
2019-04-11T22:28:15.851Z,101874.66
2019-04-11T22:30:46.526Z,101877.24
2019-04-11T22:33:18.261Z,101874.27
2019-04-11T22:35:48.244Z,101874.31
2019-04-11T22:38:18.207Z,101873.85
2019-04-11T22:40:48.172Z,101870.92
2019-04-11T22:43:24.301Z,101872.59
2019-04-11T22:45:50.001Z,101879.28
2019-04-11T22:48:19.963Z,101881.66
2019-04-11T22:50:50.033Z,101876.55
2019-04-11T22:53:20.105Z,101884.81
2019-04-11T22:55:50.075Z,101877.98
2019-04-11T22:58:20.046Z,101883.34
2019-04-11T23:00:51.627Z,101885.21
2019-04-11T23:03:23.456Z,101883.39
2019-04-11T23:05:53.437Z,101881.62
2019-04-11T23:08:23.385Z,101881.63
2019-04-11T23:10:53.378Z,101878.97
2019-04-11T23:13:23.445Z,101884.92
2019-04-11T23:15:54.452Z,101881.02
2019-04-11T23:18:24.677Z,101872.64
2019-04-11T23:20:56.050Z,101878.73
2019-04-11T23:23:26.211Z,101875.56
2019-04-11T23:25:56.193Z,101880.64
2019-04-11T23:28:26.254Z,101880.50
2019-04-11T23:30:56.331Z,101875.90
2019-04-11T23:33:26.292Z,101878.41
2019-04-11T23:35:56.290Z,101888.41
2019-04-11T23:38:26.254Z,101875.38
2019-04-11T23:40:56.246Z,101875.71
2019-04-11T23:43:26.213Z,101879.70
2019-04-11T23:45:56.296Z,101876.55
2019-04-11T23:48:26.252Z,101869.52
2019-04-11T23:50:56.236Z,101877.89
2019-04-11T23:53:29.161Z,101871.47
2019-04-11T23:55:59.985Z,101869.77
2019-04-11T23:58:31.771Z,101870.17
